sensor_id;sensor_type;location;lat;lon;timestamp;pressure;altitude;pressure_sealevel;temperature;humidity
50302;BME280;36550;50.472;19.744;2023-05-23T00:02:39;97939.61;;;8.61;73.85
50302;BME280;36550;50.472;19.744;2023-05-23T00:05:23;97934.11;;;8.61;73.93
50302;BME280;36550;50.472;19.744;2023-05-23T00:08:09;97930.27;;;8.62;74.27
50302;BME280;36550;50.472;19.744;2023-05-23T00:10:53;97926.67;;;8.60;74.35
50302;BME280;36550;50.472;19.744;2023-05-23T00:13:36;97926.60;;;8.58;74.41
50302;BME280;36550;50.472;19.744;2023-05-23T00:16:22;97919.05;;;8.53;74.38
50302;BME280;36550;50.472;19.744;2023-05-23T00:19:06;97918.41;;;8.46;74.19
50302;BME280;36550;50.472;19.744;2023-05-23T00:21:50;97918.35;;;8.41;74.25
50302;BME280;36550;50.472;19.744;2023-05-23T00:24:36;97915.46;;;8.39;74.19
50302;BME280;36550;50.472;19.744;2023-05-23T00:27:20;97913.30;;;8.36;74.01
50302;BME280;36550;50.472;19.744;2023-05-23T00:30:04;97905.98;;;8.32;74.15
50302;BME280;36550;50.472;19.744;2023-05-23T00:32:48;97903.91;;;8.28;74.30
50302;BME280;36550;50.472;19.744;2023-05-23T00:35:31;97901.65;;;8.26;74.42
50302;BME280;36550;50.472;19.744;2023-05-23T00:38:16;97904.49;;;8.23;74.50
50302;BME280;36550;50.472;19.744;2023-05-23T00:41:00;97906.66;;;8.20;74.54
50302;BME280;36550;50.472;19.744;2023-05-23T00:43:44;97909.16;;;8.17;74.45
50302;BME280;36550;50.472;19.744;2023-05-23T00:46:29;97907.63;;;8.15;74.48
50302;BME280;36550;50.472;19.744;2023-05-23T00:49:13;97907.33;;;8.13;74.56
50302;BME280;36550;50.472;19.744;2023-05-23T00:51:57;97903.81;;;8.11;74.46
50302;BME280;36550;50.472;19.744;2023-05-23T00:54:42;97900.03;;;8.08;74.55
50302;BME280;36550;50.472;19.744;2023-05-23T00:57:26;97897.71;;;8.03;74.57
50302;BME280;36550;50.472;19.744;2023-05-23T01:00:11;97900.83;;;7.99;74.66
50302;BME280;36550;50.472;19.744;2023-05-23T01:02:56;97905.13;;;7.96;74.78
50302;BME280;36550;50.472;19.744;2023-05-23T01:05:40;97905.12;;;7.93;75.00
50302;BME280;36550;50.472;19.744;2023-05-23T01:08:24;97903.61;;;7.90;74.96
50302;BME280;36550;50.472;19.744;2023-05-23T01:11:21;97904.16;;;7.89;74.93
50302;BME280;36550;50.472;19.744;2023-05-23T01:14:15;97905.64;;;7.89;75.03
50302;BME280;36550;50.472;19.744;2023-05-23T01:17:12;97905.34;;;7.92;75.18
50302;BME280;36550;50.472;19.744;2023-05-23T01:20:02;97904.83;;;7.94;75.42
50302;BME280;36550;50.472;19.744;2023-05-23T01:25:53;97910.70;;;7.93;75.64
50302;BME280;36550;50.472;19.744;2023-05-23T01:28:45;97905.98;;;7.91;75.60
50302;BME280;36550;50.472;19.744;2023-05-23T01:31:31;97900.75;;;7.86;75.39
50302;BME280;36550;50.472;19.744;2023-05-23T01:34:17;97900.30;;;7.82;75.43
50302;BME280;36550;50.472;19.744;2023-05-23T01:37:06;97900.45;;;7.81;75.42
50302;BME280;36550;50.472;19.744;2023-05-23T01:39:51;97895.55;;;7.80;75.38
50302;BME280;36550;50.472;19.744;2023-05-23T01:42:35;97890.13;;;7.78;75.38
50302;BME280;36550;50.472;19.744;2023-05-23T01:45:19;97888.85;;;7.78;75.42
50302;BME280;36550;50.472;19.744;2023-05-23T01:48:03;97884.45;;;7.75;75.54
50302;BME280;36550;50.472;19.744;2023-05-23T01:50:48;97880.44;;;7.72;75.67
50302;BME280;36550;50.472;19.744;2023-05-23T01:53:33;97884.57;;;7.69;75.82
50302;BME280;36550;50.472;19.744;2023-05-23T01:56:18;97882.95;;;7.66;75.72
50302;BME280;36550;50.472;19.744;2023-05-23T01:59:03;97882.31;;;7.62;75.72
50302;BME280;36550;50.472;19.744;2023-05-23T02:01:47;97881.47;;;7.62;75.51
50302;BME280;36550;50.472;19.744;2023-05-23T02:04:31;97883.08;;;7.62;75.61
50302;BME280;36550;50.472;19.744;2023-05-23T02:07:14;97880.02;;;7.63;75.82
50302;BME280;36550;50.472;19.744;2023-05-23T02:09:58;97877.13;;;7.63;76.03
50302;BME280;36550;50.472;19.744;2023-05-23T02:12:42;97875.58;;;7.62;76.06
50302;BME280;36550;50.472;19.744;2023-05-23T02:15:26;97873.34;;;7.61;76.16
50302;BME280;36550;50.472;19.744;2023-05-23T02:18:09;97878.98;;;7.59;76.30
50302;BME280;36550;50.472;19.744;2023-05-23T02:20:54;97879.30;;;7.55;76.21
50302;BME280;36550;50.472;19.744;2023-05-23T02:23:39;97877.71;;;7.55;76.01
50302;BME280;36550;50.472;19.744;2023-05-23T02:26:22;97877.66;;;7.55;76.14
50302;BME280;36550;50.472;19.744;2023-05-23T02:29:07;97874.83;;;7.56;76.27
50302;BME280;36550;50.472;19.744;2023-05-23T02:31:51;97875.52;;;7.57;76.37
50302;BME280;36550;50.472;19.744;2023-05-23T02:34:34;97874.11;;;7.57;76.56
50302;BME280;36550;50.472;19.744;2023-05-23T02:37:18;97871.73;;;7.57;76.77
50302;BME280;36550;50.472;19.744;2023-05-23T02:40:02;97877.30;;;7.59;76.84
50302;BME280;36550;50.472;19.744;2023-05-23T02:42:46;97875.52;;;7.59;76.77
50302;BME280;36550;50.472;19.744;2023-05-23T02:45:30;97874.60;;;7.58;76.53
50302;BME280;36550;50.472;19.744;2023-05-23T02:48:15;97871.13;;;7.56;76.40
50302;BME280;36550;50.472;19.744;2023-05-23T02:50:59;97872.71;;;7.59;76.56
50302;BME280;36550;50.472;19.744;2023-05-23T02:53:43;97872.29;;;7.64;76.88
50302;BME280;36550;50.472;19.744;2023-05-23T02:56:27;97875.83;;;7.68;76.82
50302;BME280;36550;50.472;19.744;2023-05-23T02:59:11;97870.61;;;7.67;76.81
50302;BME280;36550;50.472;19.744;2023-05-23T03:01:55;97872.41;;;7.71;77.10
50302;BME280;36550;50.472;19.744;2023-05-23T03:04:39;97874.58;;;7.75;77.08
50302;BME280;36550;50.472;19.744;2023-05-23T03:07:22;97871.26;;;7.80;76.94
50302;BME280;36550;50.472;19.744;2023-05-23T03:10:06;97873.85;;;7.85;76.71
50302;BME280;36550;50.472;19.744;2023-05-23T03:12:50;97875.23;;;7.91;76.81
50302;BME280;36550;50.472;19.744;2023-05-23T03:15:34;97871.77;;;7.95;76.79
50302;BME280;36550;50.472;19.744;2023-05-23T03:18:18;97865.48;;;8.00;76.97
50302;BME280;36550;50.472;19.744;2023-05-23T03:21:03;97860.52;;;8.06;76.97
50302;BME280;36550;50.472;19.744;2023-05-23T03:23:47;97857.71;;;8.13;76.93
50302;BME280;36550;50.472;19.744;2023-05-23T03:26:30;97853.70;;;8.20;77.00
50302;BME280;36550;50.472;19.744;2023-05-23T03:29:15;97850.43;;;8.33;77.00
50302;BME280;36550;50.472;19.744;2023-05-23T03:31:59;97851.54;;;8.47;76.89
50302;BME280;36550;50.472;19.744;2023-05-23T03:34:42;97849.52;;;8.58;76.83
50302;BME280;36550;50.472;19.744;2023-05-23T03:37:26;97849.62;;;8.72;76.87
50302;BME280;36550;50.472;19.744;2023-05-23T03:40:10;97850.52;;;8.84;76.96
50302;BME280;36550;50.472;19.744;2023-05-23T03:43:01;97847.95;;;8.93;76.94
50302;BME280;36550;50.472;19.744;2023-05-23T03:45:47;97843.72;;;9.00;76.72
50302;BME280;36550;50.472;19.744;2023-05-23T03:48:31;97842.74;;;9.11;76.82
50302;BME280;36550;50.472;19.744;2023-05-23T03:51:15;97841.20;;;9.22;76.73
50302;BME280;36550;50.472;19.744;2023-05-23T03:53:58;97841.90;;;9.35;76.93
50302;BME280;36550;50.472;19.744;2023-05-23T03:56:42;97839.31;;;9.50;77.18
50302;BME280;36550;50.472;19.744;2023-05-23T03:59:26;97834.61;;;9.62;77.23
50302;BME280;36550;50.472;19.744;2023-05-23T04:02:10;97834.02;;;9.74;77.31
50302;BME280;36550;50.472;19.744;2023-05-23T04:04:54;97835.36;;;9.87;77.40
50302;BME280;36550;50.472;19.744;2023-05-23T04:07:39;97831.27;;;9.99;77.25
50302;BME280;36550;50.472;19.744;2023-05-23T04:10:24;97834.22;;;10.10;77.27
50302;BME280;36550;50.472;19.744;2023-05-23T04:13:08;97827.96;;;10.21;77.31
50302;BME280;36550;50.472;19.744;2023-05-23T04:15:53;97825.23;;;10.32;77.40
50302;BME280;36550;50.472;19.744;2023-05-23T04:18:38;97823.10;;;10.43;77.54
50302;BME280;36550;50.472;19.744;2023-05-23T04:21:22;97826.88;;;10.53;77.54
50302;BME280;36550;50.472;19.744;2023-05-23T04:24:06;97827.95;;;10.60;77.40
50302;BME280;36550;50.472;19.744;2023-05-23T04:26:51;97834.11;;;10.68;77.33
50302;BME280;36550;50.472;19.744;2023-05-23T04:29:35;97835.55;;;10.77;77.49
50302;BME280;36550;50.472;19.744;2023-05-23T04:32:19;97831.65;;;10.86;77.38
50302;BME280;36550;50.472;19.744;2023-05-23T04:35:05;97832.67;;;10.96;77.56
50302;BME280;36550;50.472;19.744;2023-05-23T04:37:49;97835.15;;;11.07;77.67
50302;BME280;36550;50.472;19.744;2023-05-23T04:40:33;97829.63;;;11.18;77.62
50302;BME280;36550;50.472;19.744;2023-05-23T04:43:17;97829.27;;;11.31;77.92
50302;BME280;36550;50.472;19.744;2023-05-23T04:46:02;97827.41;;;11.46;77.86
50302;BME280;36550;50.472;19.744;2023-05-23T04:48:46;97828.98;;;11.61;77.76
50302;BME280;36550;50.472;19.744;2023-05-23T04:51:31;97830.21;;;11.84;77.66
50302;BME280;36550;50.472;19.744;2023-05-23T04:54:16;97820.84;;;12.12;77.50
50302;BME280;36550;50.472;19.744;2023-05-23T04:57:00;97821.12;;;12.44;77.35
50302;BME280;36550;50.472;19.744;2023-05-23T04:59:44;97822.27;;;12.75;77.29
50302;BME280;36550;50.472;19.744;2023-05-23T05:02:29;97818.64;;;13.09;77.44
50302;BME280;36550;50.472;19.744;2023-05-23T05:05:17;97815.98;;;13.43;77.11
50302;BME280;36550;50.472;19.744;2023-05-23T05:08:01;97813.29;;;13.73;76.77
50302;BME280;36550;50.472;19.744;2023-05-23T05:10:44;97813.63;;;14.01;76.44
50302;BME280;36550;50.472;19.744;2023-05-23T05:13:28;97807.43;;;14.26;76.18
50302;BME280;36550;50.472;19.744;2023-05-23T05:16:12;97808.55;;;14.47;75.83
50302;BME280;36550;50.472;19.744;2023-05-23T05:18:56;97805.87;;;14.65;75.34
50302;BME280;36550;50.472;19.744;2023-05-23T05:21:40;97806.16;;;14.84;75.22
50302;BME280;36550;50.472;19.744;2023-05-23T05:24:24;97805.34;;;15.06;74.82
50302;BME280;36550;50.472;19.744;2023-05-23T05:27:08;97808.39;;;15.29;74.70
50302;BME280;36550;50.472;19.744;2023-05-23T05:29:54;97798.95;;;15.51;74.45
50302;BME280;36550;50.472;19.744;2023-05-23T05:32:41;97797.69;;;15.74;74.16
50302;BME280;36550;50.472;19.744;2023-05-23T05:35:32;97798.70;;;15.95;73.79
50302;BME280;36550;50.472;19.744;2023-05-23T05:38:16;97795.02;;;16.21;73.29
50302;BME280;36550;50.472;19.744;2023-05-23T05:41:00;97793.89;;;16.45;72.76
50302;BME280;36550;50.472;19.744;2023-05-23T05:43:44;97793.68;;;16.70;72.30
50302;BME280;36550;50.472;19.744;2023-05-23T05:46:28;97793.65;;;16.93;71.77
50302;BME280;36550;50.472;19.744;2023-05-23T05:49:12;97795.30;;;17.12;71.39
50302;BME280;36550;50.472;19.744;2023-05-23T05:51:56;97793.99;;;17.30;71.06
50302;BME280;36550;50.472;19.744;2023-05-23T05:54:40;97794.20;;;17.44;70.69
50302;BME280;36550;50.472;19.744;2023-05-23T05:57:24;97791.73;;;17.53;70.42
50302;BME280;36550;50.472;19.744;2023-05-23T06:00:09;97790.64;;;17.61;69.99
50302;BME280;36550;50.472;19.744;2023-05-23T06:02:57;97785.56;;;17.68;69.64
50302;BME280;36550;50.472;19.744;2023-05-23T06:05:41;97784.13;;;17.72;69.27
50302;BME280;36550;50.472;19.744;2023-05-23T06:08:25;97777.63;;;17.73;69.08
50302;BME280;36550;50.472;19.744;2023-05-23T06:11:09;97774.23;;;17.74;68.98
50302;BME280;36550;50.472;19.744;2023-05-23T06:13:54;97769.11;;;17.76;68.83
50302;BME280;36550;50.472;19.744;2023-05-23T06:16:37;97769.72;;;17.78;69.01
50302;BME280;36550;50.472;19.744;2023-05-23T06:19:22;97768.14;;;17.77;68.51
50302;BME280;36550;50.472;19.744;2023-05-23T06:22:06;97766.91;;;17.74;68.29
50302;BME280;36550;50.472;19.744;2023-05-23T06:24:49;97769.27;;;17.73;68.17
50302;BME280;36550;50.472;19.744;2023-05-23T06:27:33;97767.78;;;17.71;68.12
50302;BME280;36550;50.472;19.744;2023-05-23T06:30:16;97766.13;;;17.68;68.14
50302;BME280;36550;50.472;19.744;2023-05-23T06:33:00;97768.70;;;17.66;68.07
50302;BME280;36550;50.472;19.744;2023-05-23T06:35:45;97769.34;;;17.66;68.24
50302;BME280;36550;50.472;19.744;2023-05-23T06:38:30;97763.83;;;17.65;68.17
50302;BME280;36550;50.472;19.744;2023-05-23T06:41:16;97765.88;;;17.67;68.13
50302;BME280;36550;50.472;19.744;2023-05-23T06:44:00;97762.22;;;17.67;67.93
50302;BME280;36550;50.472;19.744;2023-05-23T06:46:44;97766.55;;;17.69;68.23
50302;BME280;36550;50.472;19.744;2023-05-23T06:49:28;97766.64;;;17.69;67.76
50302;BME280;36550;50.472;19.744;2023-05-23T06:52:13;97769.49;;;17.71;67.73
50302;BME280;36550;50.472;19.744;2023-05-23T06:54:57;97767.02;;;17.73;67.52
50302;BME280;36550;50.472;19.744;2023-05-23T06:57:41;97766.41;;;17.76;67.56
50302;BME280;36550;50.472;19.744;2023-05-23T07:00:25;97765.69;;;17.78;67.05
50302;BME280;36550;50.472;19.744;2023-05-23T07:03:09;97764.91;;;17.76;67.03
50302;BME280;36550;50.472;19.744;2023-05-23T07:05:53;97766.05;;;17.79;67.22
50302;BME280;36550;50.472;19.744;2023-05-23T07:08:37;97764.23;;;17.83;67.10
50302;BME280;36550;50.472;19.744;2023-05-23T07:11:22;97764.23;;;17.89;66.97
50302;BME280;36550;50.472;19.744;2023-05-23T07:14:05;97761.34;;;17.94;66.46
50302;BME280;36550;50.472;19.744;2023-05-23T07:16:50;97756.69;;;17.97;66.49
50302;BME280;36550;50.472;19.744;2023-05-23T07:19:34;97751.70;;;17.99;66.48
50302;BME280;36550;50.472;19.744;2023-05-23T07:22:18;97754.55;;;18.04;66.47
50302;BME280;36550;50.472;19.744;2023-05-23T07:25:02;97748.58;;;18.10;66.50
50302;BME280;36550;50.472;19.744;2023-05-23T07:27:46;97750.63;;;18.16;66.46
50302;BME280;36550;50.472;19.744;2023-05-23T07:30:30;97747.67;;;18.23;66.60
50302;BME280;36550;50.472;19.744;2023-05-23T07:33:13;97747.98;;;18.30;66.50
50302;BME280;36550;50.472;19.744;2023-05-23T07:35:57;97745.64;;;18.36;66.38
50302;BME280;36550;50.472;19.744;2023-05-23T07:38:41;97745.65;;;18.43;65.89
50302;BME280;36550;50.472;19.744;2023-05-23T07:41:24;97745.25;;;18.51;65.48
50302;BME280;36550;50.472;19.744;2023-05-23T07:44:09;97742.23;;;18.56;65.13
50302;BME280;36550;50.472;19.744;2023-05-23T07:46:53;97740.09;;;18.66;65.24
50302;BME280;36550;50.472;19.744;2023-05-23T07:49:37;97742.11;;;18.75;64.86
50302;BME280;36550;50.472;19.744;2023-05-23T07:52:21;97741.08;;;18.83;64.58
50302;BME280;36550;50.472;19.744;2023-05-23T07:55:05;97738.89;;;18.92;64.47
50302;BME280;36550;50.472;19.744;2023-05-23T07:57:50;97741.40;;;19.03;63.45
50302;BME280;36550;50.472;19.744;2023-05-23T08:00:35;97735.80;;;19.10;63.17
50302;BME280;36550;50.472;19.744;2023-05-23T08:03:19;97738.46;;;19.17;62.94
50302;BME280;36550;50.472;19.744;2023-05-23T08:06:03;97738.07;;;19.21;62.04
50302;BME280;36550;50.472;19.744;2023-05-23T08:08:47;97737.73;;;19.26;61.52
50302;BME280;36550;50.472;19.744;2023-05-23T08:11:30;97735.80;;;19.32;61.08
50302;BME280;36550;50.472;19.744;2023-05-23T08:14:14;97735.05;;;19.38;60.28
50302;BME280;36550;50.472;19.744;2023-05-23T08:16:59;97734.62;;;19.43;59.79
50302;BME280;36550;50.472;19.744;2023-05-23T08:19:43;97733.81;;;19.49;58.98
50302;BME280;36550;50.472;19.744;2023-05-23T08:22:27;97730.98;;;19.56;58.98
50302;BME280;36550;50.472;19.744;2023-05-23T08:25:11;97731.33;;;19.63;57.90
50302;BME280;36550;50.472;19.744;2023-05-23T08:27:58;97731.77;;;19.69;57.70
50302;BME280;36550;50.472;19.744;2023-05-23T08:30:42;97730.02;;;19.78;57.91
50302;BME280;36550;50.472;19.744;2023-05-23T08:33:26;97731.88;;;19.88;57.41
50302;BME280;36550;50.472;19.744;2023-05-23T08:36:10;97731.23;;;19.97;57.33
50302;BME280;36550;50.472;19.744;2023-05-23T08:38:53;97736.43;;;20.05;56.70
50302;BME280;36550;50.472;19.744;2023-05-23T08:41:38;97734.77;;;20.10;56.17
50302;BME280;36550;50.472;19.744;2023-05-23T08:44:22;97736.27;;;20.14;56.00
50302;BME280;36550;50.472;19.744;2023-05-23T08:47:07;97734.29;;;20.18;55.94
50302;BME280;36550;50.472;19.744;2023-05-23T08:49:54;97735.91;;;20.22;55.61
50302;BME280;36550;50.472;19.744;2023-05-23T08:52:43;97732.73;;;20.26;55.44
50302;BME280;36550;50.472;19.744;2023-05-23T08:55:28;97732.29;;;20.31;55.51
50302;BME280;36550;50.472;19.744;2023-05-23T08:58:14;97731.65;;;20.34;55.65
50302;BME280;36550;50.472;19.744;2023-05-23T09:00:58;97730.52;;;20.37;55.31
50302;BME280;36550;50.472;19.744;2023-05-23T09:03:43;97736.98;;;20.41;55.07
50302;BME280;36550;50.472;19.744;2023-05-23T09:06:27;97735.00;;;20.46;54.52
50302;BME280;36550;50.472;19.744;2023-05-23T09:09:11;97732.33;;;20.50;54.61
50302;BME280;36550;50.472;19.744;2023-05-23T09:11:57;97730.88;;;20.53;54.45
50302;BME280;36550;50.472;19.744;2023-05-23T09:14:42;97733.55;;;20.54;54.03
50302;BME280;36550;50.472;19.744;2023-05-23T09:17:30;97730.09;;;20.54;53.14
50302;BME280;36550;50.472;19.744;2023-05-23T09:20:16;97730.37;;;20.54;53.06
50302;BME280;36550;50.472;19.744;2023-05-23T09:23:00;97725.66;;;20.56;53.04
50302;BME280;36550;50.472;19.744;2023-05-23T09:25:47;97729.48;;;20.60;52.51
50302;BME280;36550;50.472;19.744;2023-05-23T09:28:32;97725.50;;;20.63;52.43
50302;BME280;36550;50.472;19.744;2023-05-23T09:31:16;97723.19;;;20.65;52.08
50302;BME280;36550;50.472;19.744;2023-05-23T09:33:59;97722.56;;;20.68;51.77
50302;BME280;36550;50.472;19.744;2023-05-23T09:36:45;97721.12;;;20.71;51.40
50302;BME280;36550;50.472;19.744;2023-05-23T09:39:29;97722.63;;;20.76;51.91
50302;BME280;36550;50.472;19.744;2023-05-23T09:42:20;97720.89;;;20.81;51.24
50302;BME280;36550;50.472;19.744;2023-05-23T09:45:08;97718.36;;;20.87;51.18
50302;BME280;36550;50.472;19.744;2023-05-23T09:47:52;97716.92;;;20.93;51.20
50302;BME280;36550;50.472;19.744;2023-05-23T09:50:36;97714.93;;;21.04;50.97
50302;BME280;36550;50.472;19.744;2023-05-23T09:53:19;97708.93;;;21.10;50.70
50302;BME280;36550;50.472;19.744;2023-05-23T09:56:06;97709.44;;;21.13;50.26
50302;BME280;36550;50.472;19.744;2023-05-23T09:58:54;97712.80;;;21.15;49.69
50302;BME280;36550;50.472;19.744;2023-05-23T10:01:41;97709.55;;;21.17;49.38
50302;BME280;36550;50.472;19.744;2023-05-23T10:04:30;97708.16;;;21.17;48.68
50302;BME280;36550;50.472;19.744;2023-05-23T10:07:18;97709.77;;;21.19;48.74
50302;BME280;36550;50.472;19.744;2023-05-23T10:10:05;97705.22;;;21.21;49.29
50302;BME280;36550;50.472;19.744;2023-05-23T10:12:54;97698.94;;;21.24;49.30
50302;BME280;36550;50.472;19.744;2023-05-23T10:15:39;97694.07;;;21.24;49.11
50302;BME280;36550;50.472;19.744;2023-05-23T10:18:25;97695.45;;;21.22;48.62
50302;BME280;36550;50.472;19.744;2023-05-23T10:21:11;97690.39;;;21.19;48.18
50302;BME280;36550;50.472;19.744;2023-05-23T10:23:59;97688.95;;;21.15;48.41
50302;BME280;36550;50.472;19.744;2023-05-23T10:26:44;97684.73;;;21.13;48.48
50302;BME280;36550;50.472;19.744;2023-05-23T10:29:29;97683.42;;;21.12;48.78
50302;BME280;36550;50.472;19.744;2023-05-23T10:32:14;97684.01;;;21.12;48.75
50302;BME280;36550;50.472;19.744;2023-05-23T10:35:08;97676.27;;;21.10;48.32
50302;BME280;36550;50.472;19.744;2023-05-23T10:38:02;97672.77;;;21.08;47.91
50302;BME280;36550;50.472;19.744;2023-05-23T10:41:10;97669.31;;;21.09;47.13
50302;BME280;36550;50.472;19.744;2023-05-23T10:44:03;97670.04;;;21.10;47.90
50302;BME280;36550;50.472;19.744;2023-05-23T10:46:54;97669.27;;;21.09;47.92
50302;BME280;36550;50.472;19.744;2023-05-23T10:49:45;97668.84;;;21.11;47.88
50302;BME280;36550;50.472;19.744;2023-05-23T10:52:38;97670.73;;;21.10;48.47
50302;BME280;36550;50.472;19.744;2023-05-23T10:55:22;97673.63;;;21.12;48.16
50302;BME280;36550;50.472;19.744;2023-05-23T10:58:17;97673.43;;;21.12;47.71
50302;BME280;36550;50.472;19.744;2023-05-23T11:01:09;97674.23;;;21.13;47.66
50302;BME280;36550;50.472;19.744;2023-05-23T11:03:56;97673.02;;;21.15;47.93
50302;BME280;36550;50.472;19.744;2023-05-23T11:06:41;97673.48;;;21.20;47.76
50302;BME280;36550;50.472;19.744;2023-05-23T11:09:25;97676.75;;;21.25;47.10
50302;BME280;36550;50.472;19.744;2023-05-23T11:12:09;97669.56;;;21.30;47.02
50302;BME280;36550;50.472;19.744;2023-05-23T11:14:53;97658.45;;;21.35;47.07
50302;BME280;36550;50.472;19.744;2023-05-23T11:17:36;97653.70;;;21.41;46.87
50302;BME280;36550;50.472;19.744;2023-05-23T11:20:23;97649.99;;;21.46;46.73
50302;BME280;36550;50.472;19.744;2023-05-23T11:23:11;97650.00;;;21.55;47.01
50302;BME280;36550;50.472;19.744;2023-05-23T11:25:54;97648.45;;;21.66;46.98
50302;BME280;36550;50.472;19.744;2023-05-23T11:28:54;97647.73;;;21.80;46.72
50302;BME280;36550;50.472;19.744;2023-05-23T11:31:39;97643.67;;;21.92;46.53
50302;BME280;36550;50.472;19.744;2023-05-23T11:34:26;97638.96;;;22.04;46.56
50302;BME280;36550;50.472;19.744;2023-05-23T11:37:09;97638.86;;;22.16;46.59
50302;BME280;36550;50.472;19.744;2023-05-23T11:39:54;97639.83;;;22.28;45.82
50302;BME280;36550;50.472;19.744;2023-05-23T11:42:42;97638.38;;;22.39;46.30
50302;BME280;36550;50.472;19.744;2023-05-23T11:45:26;97638.89;;;22.50;45.96
50302;BME280;36550;50.472;19.744;2023-05-23T11:48:12;97639.20;;;22.59;45.20
50302;BME280;36550;50.472;19.744;2023-05-23T11:50:57;97637.39;;;22.69;45.95
50302;BME280;36550;50.472;19.744;2023-05-23T11:53:40;97640.90;;;22.79;45.77
50302;BME280;36550;50.472;19.744;2023-05-23T11:56:24;97638.48;;;22.89;45.95
50302;BME280;36550;50.472;19.744;2023-05-23T11:59:08;97638.76;;;22.99;44.87
50302;BME280;36550;50.472;19.744;2023-05-23T12:01:53;97639.31;;;23.03;43.69
50302;BME280;36550;50.472;19.744;2023-05-23T12:04:37;97640.83;;;23.09;44.29
50302;BME280;36550;50.472;19.744;2023-05-23T12:07:21;97642.55;;;23.22;44.73
50302;BME280;36550;50.472;19.744;2023-05-23T12:10:05;97637.67;;;23.36;44.94
50302;BME280;36550;50.472;19.744;2023-05-23T12:12:50;97634.57;;;23.51;45.18
50302;BME280;36550;50.472;19.744;2023-05-23T12:15:34;97627.25;;;23.65;45.28
50302;BME280;36550;50.472;19.744;2023-05-23T12:18:18;97624.42;;;23.74;44.70
50302;BME280;36550;50.472;19.744;2023-05-23T12:21:04;97626.05;;;23.81;44.43
50302;BME280;36550;50.472;19.744;2023-05-23T12:23:50;97625.67;;;23.88;44.37
50302;BME280;36550;50.472;19.744;2023-05-23T12:26:51;97617.50;;;23.90;42.34
50302;BME280;36550;50.472;19.744;2023-05-23T12:29:35;97623.30;;;23.81;42.19
50302;BME280;36550;50.472;19.744;2023-05-23T12:32:23;97619.55;;;23.77;42.82
50302;BME280;36550;50.472;19.744;2023-05-23T12:35:12;97616.02;;;23.75;42.27
50302;BME280;36550;50.472;19.744;2023-05-23T12:37:56;97615.34;;;23.68;41.48
50302;BME280;36550;50.472;19.744;2023-05-23T12:40:42;97615.71;;;23.59;42.03
50302;BME280;36550;50.472;19.744;2023-05-23T12:43:25;97612.26;;;23.50;42.15
50302;BME280;36550;50.472;19.744;2023-05-23T12:46:09;97608.41;;;23.39;42.43
50302;BME280;36550;50.472;19.744;2023-05-23T12:48:54;97606.11;;;23.28;42.58
50302;BME280;36550;50.472;19.744;2023-05-23T12:51:37;97600.41;;;23.22;42.79
50302;BME280;36550;50.472;19.744;2023-05-23T12:54:22;97597.93;;;23.19;43.10
50302;BME280;36550;50.472;19.744;2023-05-23T12:57:06;97592.80;;;23.15;42.86
50302;BME280;36550;50.472;19.744;2023-05-23T12:59:49;97593.63;;;23.06;42.85
50302;BME280;36550;50.472;19.744;2023-05-23T13:02:33;97594.98;;;23.02;42.73
50302;BME280;36550;50.472;19.744;2023-05-23T13:05:17;97597.11;;;22.99;42.95
50302;BME280;36550;50.472;19.744;2023-05-23T13:08:01;97601.89;;;23.00;43.18
50302;BME280;36550;50.472;19.744;2023-05-23T13:10:46;97598.51;;;23.04;43.08
50302;BME280;36550;50.472;19.744;2023-05-23T13:13:30;97602.66;;;23.04;42.70
50302;BME280;36550;50.472;19.744;2023-05-23T13:16:15;97599.26;;;23.05;42.40
50302;BME280;36550;50.472;19.744;2023-05-23T13:18:59;97601.42;;;23.08;42.58
50302;BME280;36550;50.472;19.744;2023-05-23T13:21:43;97602.23;;;23.16;42.84
50302;BME280;36550;50.472;19.744;2023-05-23T13:24:27;97597.00;;;23.25;42.99
50302;BME280;36550;50.472;19.744;2023-05-23T13:27:11;97593.02;;;23.34;42.94
50302;BME280;36550;50.472;19.744;2023-05-23T13:29:54;97589.52;;;23.43;43.02
50302;BME280;36550;50.472;19.744;2023-05-23T13:32:38;97587.39;;;23.48;42.83
50302;BME280;36550;50.472;19.744;2023-05-23T13:35:22;97591.81;;;23.56;43.03
50302;BME280;36550;50.472;19.744;2023-05-23T13:38:06;97587.05;;;23.67;43.21
50302;BME280;36550;50.472;19.744;2023-05-23T13:40:50;97582.11;;;23.75;43.10
50302;BME280;36550;50.472;19.744;2023-05-23T13:43:35;97581.11;;;23.83;42.91
50302;BME280;36550;50.472;19.744;2023-05-23T13:46:19;97584.88;;;23.88;42.80
50302;BME280;36550;50.472;19.744;2023-05-23T13:49:03;97589.83;;;23.92;42.89
50302;BME280;36550;50.472;19.744;2023-05-23T13:51:46;97590.61;;;23.99;43.24
50302;BME280;36550;50.472;19.744;2023-05-23T13:54:32;97591.11;;;24.06;43.21
50302;BME280;36550;50.472;19.744;2023-05-23T13:57:16;97592.62;;;24.12;43.30
50302;BME280;36550;50.472;19.744;2023-05-23T14:00:00;97590.80;;;24.17;43.05
50302;BME280;36550;50.472;19.744;2023-05-23T14:02:45;97595.70;;;24.19;43.01
50302;BME280;36550;50.472;19.744;2023-05-23T14:05:29;97590.41;;;24.22;42.79
50302;BME280;36550;50.472;19.744;2023-05-23T14:08:13;97588.76;;;24.20;42.65
50302;BME280;36550;50.472;19.744;2023-05-23T14:10:57;97585.42;;;24.19;42.70
50302;BME280;36550;50.472;19.744;2023-05-23T14:13:40;97586.75;;;24.20;42.76
50302;BME280;36550;50.472;19.744;2023-05-23T14:16:24;97585.89;;;24.19;42.90
50302;BME280;36550;50.472;19.744;2023-05-23T14:19:08;97586.55;;;24.18;42.84
50302;BME280;36550;50.472;19.744;2023-05-23T14:21:52;97588.88;;;24.19;43.02
50302;BME280;36550;50.472;19.744;2023-05-23T14:24:36;97590.52;;;24.23;43.18
50302;BME280;36550;50.472;19.744;2023-05-23T14:27:20;97590.22;;;24.28;43.16
50302;BME280;36550;50.472;19.744;2023-05-23T14:30:04;97592.50;;;24.34;43.04